sensor_id;sensor_type;location;lat;lon;timestamp;P1;durP1;ratioP1;P2;durP2;ratioP2
27921;SDS011;15261;50.356;10.340;2024-01-07T00:00:09;14.67;;;12.10;;
27921;SDS011;15261;50.356;10.340;2024-01-07T00:02:35;15.37;;;12.67;;
27921;SDS011;15261;50.356;10.340;2024-01-07T00:05:01;17.40;;;12.87;;
27921;SDS011;15261;50.356;10.340;2024-01-07T00:07:44;15.60;;;13.00;;
27921;SDS011;15261;50.356;10.340;2024-01-07T00:10:10;15.90;;;12.97;;
27921;SDS011;15261;50.356;10.340;2024-01-07T00:12:36;14.17;;;12.50;;
27921;SDS011;15261;50.356;10.340;2024-01-07T00:17:31;18.60;;;14.33;;
27921;SDS011;15261;50.356;10.340;2024-01-07T00:19:56;19.33;;;13.33;;
27921;SDS011;15261;50.356;10.340;2024-01-07T00:22:22;14.67;;;12.70;;
27921;SDS011;15261;50.356;10.340;2024-01-07T00:24:51;17.17;;;13.30;;
27921;SDS011;15261;50.356;10.340;2024-01-07T00:27:17;15.97;;;13.53;;
27921;SDS011;15261;50.356;10.340;2024-01-07T00:29:42;15.80;;;14.10;;
27921;SDS011;15261;50.356;10.340;2024-01-07T00:32:10;16.10;;;13.63;;
27921;SDS011;15261;50.356;10.340;2024-01-07T00:34:36;18.03;;;14.00;;
27921;SDS011;15261;50.356;10.340;2024-01-07T00:37:01;15.53;;;13.17;;
27921;SDS011;15261;50.356;10.340;2024-01-07T00:39:28;13.90;;;12.40;;
27921;SDS011;15261;50.356;10.340;2024-01-07T00:41:53;14.10;;;12.60;;
27921;SDS011;15261;50.356;10.340;2024-01-07T00:44:25;16.43;;;13.53;;
27921;SDS011;15261;50.356;10.340;2024-01-07T00:46:53;13.10;;;11.70;;
27921;SDS011;15261;50.356;10.340;2024-01-07T00:49:19;14.43;;;12.23;;
27921;SDS011;15261;50.356;10.340;2024-01-07T00:51:44;13.47;;;12.07;;
27921;SDS011;15261;50.356;10.340;2024-01-07T00:54:16;13.20;;;11.27;;
27921;SDS011;15261;50.356;10.340;2024-01-07T00:56:42;12.10;;;10.90;;
27921;SDS011;15261;50.356;10.340;2024-01-07T01:01:47;15.03;;;10.80;;
27921;SDS011;15261;50.356;10.340;2024-01-07T01:04:13;13.27;;;10.27;;
27921;SDS011;15261;50.356;10.340;2024-01-07T01:06:38;13.20;;;11.40;;
27921;SDS011;15261;50.356;10.340;2024-01-07T01:09:10;13.07;;;10.70;;
27921;SDS011;15261;50.356;10.340;2024-01-07T01:14:31;11.70;;;10.50;;
27921;SDS011;15261;50.356;10.340;2024-01-07T01:16:56;12.40;;;11.13;;
27921;SDS011;15261;50.356;10.340;2024-01-07T01:19:22;13.70;;;11.50;;
27921;SDS011;15261;50.356;10.340;2024-01-07T01:21:48;12.27;;;10.40;;
27921;SDS011;15261;50.356;10.340;2024-01-07T01:24:14;11.83;;;10.33;;
27921;SDS011;15261;50.356;10.340;2024-01-07T01:26:50;11.63;;;10.10;;
27921;SDS011;15261;50.356;10.340;2024-01-07T01:29:16;11.53;;;10.17;;
27921;SDS011;15261;50.356;10.340;2024-01-07T01:31:42;12.30;;;10.00;;
27921;SDS011;15261;50.356;10.340;2024-01-07T01:34:07;15.13;;;10.50;;
27921;SDS011;15261;50.356;10.340;2024-01-07T01:36:33;11.80;;;9.83;;
27921;SDS011;15261;50.356;10.340;2024-01-07T01:38:59;12.47;;;10.07;;
27921;SDS011;15261;50.356;10.340;2024-01-07T01:41:24;11.33;;;9.60;;
27921;SDS011;15261;50.356;10.340;2024-01-07T01:43:50;11.40;;;9.90;;
27921;SDS011;15261;50.356;10.340;2024-01-07T01:46:16;11.30;;;9.87;;
27921;SDS011;15261;50.356;10.340;2024-01-07T01:48:42;11.90;;;9.77;;
27921;SDS011;15261;50.356;10.340;2024-01-07T01:51:08;12.50;;;10.13;;
27921;SDS011;15261;50.356;10.340;2024-01-07T01:56:19;12.90;;;10.00;;
27921;SDS011;15261;50.356;10.340;2024-01-07T01:58:46;11.43;;;9.80;;
27921;SDS011;15261;50.356;10.340;2024-01-07T02:26:58;12.87;;;10.63;;
27921;SDS011;15261;50.356;10.340;2024-01-07T02:29:27;13.63;;;11.03;;
27921;SDS011;15261;50.356;10.340;2024-01-07T02:31:57;12.60;;;10.40;;
27921;SDS011;15261;50.356;10.340;2024-01-07T02:34:23;13.77;;;11.03;;
27921;SDS011;15261;50.356;10.340;2024-01-07T02:36:48;13.00;;;10.87;;
27921;SDS011;15261;50.356;10.340;2024-01-07T02:39:14;13.30;;;10.43;;
27921;SDS011;15261;50.356;10.340;2024-01-07T02:41:39;12.37;;;10.23;;
27921;SDS011;15261;50.356;10.340;2024-01-07T02:44:05;13.07;;;10.90;;
27921;SDS011;15261;50.356;10.340;2024-01-07T02:46:30;13.60;;;10.73;;
27921;SDS011;15261;50.356;10.340;2024-01-07T02:48:56;13.77;;;10.37;;
27921;SDS011;15261;50.356;10.340;2024-01-07T02:51:22;13.77;;;11.07;;
27921;SDS011;15261;50.356;10.340;2024-01-07T02:53:47;12.83;;;10.63;;
27921;SDS011;15261;50.356;10.340;2024-01-07T02:56:13;15.10;;;11.43;;
27921;SDS011;15261;50.356;10.340;2024-01-07T02:58:38;14.70;;;11.03;;
27921;SDS011;15261;50.356;10.340;2024-01-07T03:01:08;12.97;;;10.33;;
27921;SDS011;15261;50.356;10.340;2024-01-07T03:03:34;13.13;;;10.37;;
27921;SDS011;15261;50.356;10.340;2024-01-07T03:06:00;17.27;;;10.93;;
27921;SDS011;15261;50.356;10.340;2024-01-07T03:08:25;15.63;;;10.73;;
27921;SDS011;15261;50.356;10.340;2024-01-07T03:10:55;13.47;;;10.70;;
27921;SDS011;15261;50.356;10.340;2024-01-07T03:13:21;14.37;;;10.30;;
27921;SDS011;15261;50.356;10.340;2024-01-07T03:18:17;12.87;;;9.90;;
27921;SDS011;15261;50.356;10.340;2024-01-07T03:20:42;13.03;;;10.03;;
27921;SDS011;15261;50.356;10.340;2024-01-07T03:23:08;13.37;;;10.03;;
27921;SDS011;15261;50.356;10.340;2024-01-07T03:25:33;11.93;;;9.80;;
27921;SDS011;15261;50.356;10.340;2024-01-07T03:27:59;10.87;;;8.67;;
27921;SDS011;15261;50.356;10.340;2024-01-07T03:30:24;9.53;;;8.47;;
27921;SDS011;15261;50.356;10.340;2024-01-07T03:32:50;14.47;;;9.60;;
27921;SDS011;15261;50.356;10.340;2024-01-07T03:35:15;13.93;;;10.43;;
27921;SDS011;15261;50.356;10.340;2024-01-07T03:37:41;14.70;;;10.33;;
27921;SDS011;15261;50.356;10.340;2024-01-07T03:40:13;13.47;;;10.23;;
27921;SDS011;15261;50.356;10.340;2024-01-07T03:42:38;11.53;;;9.43;;
27921;SDS011;15261;50.356;10.340;2024-01-07T03:45:04;11.47;;;9.20;;
27921;SDS011;15261;50.356;10.340;2024-01-07T03:47:30;12.03;;;9.23;;
27921;SDS011;15261;50.356;10.340;2024-01-07T03:49:56;12.30;;;8.87;;
27921;SDS011;15261;50.356;10.340;2024-01-07T03:52:22;11.10;;;8.57;;
27921;SDS011;15261;50.356;10.340;2024-01-07T03:54:47;10.77;;;8.63;;
27921;SDS011;15261;50.356;10.340;2024-01-07T04:00:03;11.73;;;8.77;;
27921;SDS011;15261;50.356;10.340;2024-01-07T04:02:29;10.87;;;8.43;;
27921;SDS011;15261;50.356;10.340;2024-01-07T04:04:54;10.33;;;8.03;;
27921;SDS011;15261;50.356;10.340;2024-01-07T04:07:20;11.97;;;8.60;;
27921;SDS011;15261;50.356;10.340;2024-01-07T04:09:45;9.93;;;7.67;;
27921;SDS011;15261;50.356;10.340;2024-01-07T04:12:11;12.60;;;8.10;;
27921;SDS011;15261;50.356;10.340;2024-01-07T04:14:36;9.90;;;7.73;;
27921;SDS011;15261;50.356;10.340;2024-01-07T04:17:02;9.67;;;8.03;;
27921;SDS011;15261;50.356;10.340;2024-01-07T04:19:28;9.40;;;8.10;;
27921;SDS011;15261;50.356;10.340;2024-01-07T04:21:53;10.47;;;8.60;;
27921;SDS011;15261;50.356;10.340;2024-01-07T04:24:19;9.03;;;7.93;;
27921;SDS011;15261;50.356;10.340;2024-01-07T04:26:44;9.70;;;7.80;;
27921;SDS011;15261;50.356;10.340;2024-01-07T04:29:10;10.33;;;8.53;;
27921;SDS011;15261;50.356;10.340;2024-01-07T04:31:36;9.80;;;8.00;;
27921;SDS011;15261;50.356;10.340;2024-01-07T04:34:01;11.03;;;8.87;;
27921;SDS011;15261;50.356;10.340;2024-01-07T04:36:27;10.30;;;7.87;;
27921;SDS011;15261;50.356;10.340;2024-01-07T04:38:54;9.50;;;7.57;;
27921;SDS011;15261;50.356;10.340;2024-01-07T04:41:19;9.77;;;7.80;;
27921;SDS011;15261;50.356;10.340;2024-01-07T04:43:45;8.63;;;7.30;;
27921;SDS011;15261;50.356;10.340;2024-01-07T04:46:10;8.87;;;7.47;;
27921;SDS011;15261;50.356;10.340;2024-01-07T04:48:36;8.67;;;7.20;;
27921;SDS011;15261;50.356;10.340;2024-01-07T04:51:02;8.50;;;6.80;;
27921;SDS011;15261;50.356;10.340;2024-01-07T04:53:27;7.57;;;6.43;;
27921;SDS011;15261;50.356;10.340;2024-01-07T04:55:53;7.63;;;6.80;;
27921;SDS011;15261;50.356;10.340;2024-01-07T04:58:18;7.60;;;6.47;;
27921;SDS011;15261;50.356;10.340;2024-01-07T05:00:44;8.07;;;5.97;;
27921;SDS011;15261;50.356;10.340;2024-01-07T05:03:09;7.37;;;6.30;;
27921;SDS011;15261;50.356;10.340;2024-01-07T05:08:07;6.17;;;5.40;;
27921;SDS011;15261;50.356;10.340;2024-01-07T05:10:33;5.80;;;4.83;;
27921;SDS011;15261;50.356;10.340;2024-01-07T05:12:58;6.00;;;5.40;;
27921;SDS011;15261;50.356;10.340;2024-01-07T05:15:29;6.17;;;5.40;;
27921;SDS011;15261;50.356;10.340;2024-01-07T05:17:55;7.20;;;5.80;;
27921;SDS011;15261;50.356;10.340;2024-01-07T05:20:21;6.80;;;5.80;;
27921;SDS011;15261;50.356;10.340;2024-01-07T05:22:46;6.60;;;5.90;;
27921;SDS011;15261;50.356;10.340;2024-01-07T05:25:14;6.33;;;5.53;;
27921;SDS011;15261;50.356;10.340;2024-01-07T05:27:40;6.57;;;5.73;;
27921;SDS011;15261;50.356;10.340;2024-01-07T05:30:06;6.20;;;5.60;;
27921;SDS011;15261;50.356;10.340;2024-01-07T05:32:32;6.17;;;5.57;;
27921;SDS011;15261;50.356;10.340;2024-01-07T05:34:58;7.00;;;6.30;;
27921;SDS011;15261;50.356;10.340;2024-01-07T05:37:24;7.43;;;6.63;;
27921;SDS011;15261;50.356;10.340;2024-01-07T05:39:50;6.80;;;6.10;;
27921;SDS011;15261;50.356;10.340;2024-01-07T05:42:15;7.23;;;6.30;;
27921;SDS011;15261;50.356;10.340;2024-01-07T05:44:41;9.13;;;6.57;;
27921;SDS011;15261;50.356;10.340;2024-01-07T05:47:07;9.17;;;7.47;;
27921;SDS011;15261;50.356;10.340;2024-01-07T05:49:32;8.60;;;7.33;;
27921;SDS011;15261;50.356;10.340;2024-01-07T05:51:58;7.90;;;7.10;;
27921;SDS011;15261;50.356;10.340;2024-01-07T05:54:23;7.27;;;6.33;;
27921;SDS011;15261;50.356;10.340;2024-01-07T05:56:49;6.20;;;5.60;;
27921;SDS011;15261;50.356;10.340;2024-01-07T05:59:14;6.50;;;5.90;;
27921;SDS011;15261;50.356;10.340;2024-01-07T06:01:40;6.60;;;5.93;;
27921;SDS011;15261;50.356;10.340;2024-01-07T06:04:05;8.00;;;6.60;;
27921;SDS011;15261;50.356;10.340;2024-01-07T06:06:31;6.80;;;6.03;;
27921;SDS011;15261;50.356;10.340;2024-01-07T06:08:58;7.53;;;6.67;;
27921;SDS011;15261;50.356;10.340;2024-01-07T06:11:24;6.87;;;6.17;;
27921;SDS011;15261;50.356;10.340;2024-01-07T06:13:49;7.07;;;6.37;;
27921;SDS011;15261;50.356;10.340;2024-01-07T06:16:15;7.10;;;5.90;;
27921;SDS011;15261;50.356;10.340;2024-01-07T06:18:41;6.40;;;5.80;;
27921;SDS011;15261;50.356;10.340;2024-01-07T06:21:06;6.90;;;6.20;;
27921;SDS011;15261;50.356;10.340;2024-01-07T06:23:32;6.00;;;5.40;;
27921;SDS011;15261;50.356;10.340;2024-01-07T06:25:58;6.20;;;5.70;;
27921;SDS011;15261;50.356;10.340;2024-01-07T06:28:24;7.83;;;5.83;;
27921;SDS011;15261;50.356;10.340;2024-01-07T06:30:49;6.40;;;5.80;;
27921;SDS011;15261;50.356;10.340;2024-01-07T06:33:15;6.70;;;6.00;;
27921;SDS011;15261;50.356;10.340;2024-01-07T06:35:40;6.57;;;5.97;;
27921;SDS011;15261;50.356;10.340;2024-01-07T06:38:06;6.60;;;5.90;;
27921;SDS011;15261;50.356;10.340;2024-01-07T06:40:31;7.07;;;6.37;;
27921;SDS011;15261;50.356;10.340;2024-01-07T06:42:57;6.90;;;6.30;;
27921;SDS011;15261;50.356;10.340;2024-01-07T06:45:23;7.13;;;6.43;;
27921;SDS011;15261;50.356;10.340;2024-01-07T06:47:50;7.13;;;6.43;;
27921;SDS011;15261;50.356;10.340;2024-01-07T06:50:15;7.07;;;6.37;;
27921;SDS011;15261;50.356;10.340;2024-01-07T06:52:41;7.03;;;6.33;;
27921;SDS011;15261;50.356;10.340;2024-01-07T06:55:07;7.50;;;6.67;;
27921;SDS011;15261;50.356;10.340;2024-01-07T06:57:33;8.07;;;6.70;;
27921;SDS011;15261;50.356;10.340;2024-01-07T06:59:58;8.30;;;6.83;;
27921;SDS011;15261;50.356;10.340;2024-01-07T07:02:24;7.57;;;6.77;;
27921;SDS011;15261;50.356;10.340;2024-01-07T07:04:49;7.83;;;6.07;;
27921;SDS011;15261;50.356;10.340;2024-01-07T07:07:16;7.70;;;6.90;;
27921;SDS011;15261;50.356;10.340;2024-01-07T07:09:42;7.57;;;6.50;;
27921;SDS011;15261;50.356;10.340;2024-01-07T07:12:07;8.30;;;7.23;;
27921;SDS011;15261;50.356;10.340;2024-01-07T07:14:33;8.60;;;7.70;;
27921;SDS011;15261;50.356;10.340;2024-01-07T07:16:59;8.00;;;7.13;;
27921;SDS011;15261;50.356;10.340;2024-01-07T07:19:25;7.40;;;6.30;;
27921;SDS011;15261;50.356;10.340;2024-01-07T07:21:50;7.97;;;7.17;;
27921;SDS011;15261;50.356;10.340;2024-01-07T07:24:16;8.00;;;6.77;;
27921;SDS011;15261;50.356;10.340;2024-01-07T07:26:41;8.47;;;7.50;;
27921;SDS011;15261;50.356;10.340;2024-01-07T07:29:08;8.33;;;7.33;;
27921;SDS011;15261;50.356;10.340;2024-01-07T07:31:36;8.30;;;7.50;;
27921;SDS011;15261;50.356;10.340;2024-01-07T07:34:05;9.30;;;7.80;;
27921;SDS011;15261;50.356;10.340;2024-01-07T07:36:30;8.37;;;7.30;;
27921;SDS011;15261;50.356;10.340;2024-01-07T07:38:56;9.30;;;7.53;;
27921;SDS011;15261;50.356;10.340;2024-01-07T07:41:22;8.40;;;6.80;;
27921;SDS011;15261;50.356;10.340;2024-01-07T07:43:47;7.93;;;6.60;;
27921;SDS011;15261;50.356;10.340;2024-01-07T07:46:13;7.87;;;6.77;;
27921;SDS011;15261;50.356;10.340;2024-01-07T07:48:40;8.23;;;6.77;;
27921;SDS011;15261;50.356;10.340;2024-01-07T07:51:06;8.43;;;6.97;;
27921;SDS011;15261;50.356;10.340;2024-01-07T07:53:32;6.93;;;6.23;;
27921;SDS011;15261;50.356;10.340;2024-01-07T07:55:57;7.43;;;6.73;;
27921;SDS011;15261;50.356;10.340;2024-01-07T07:58:31;7.80;;;6.90;;
27921;SDS011;15261;50.356;10.340;2024-01-07T08:03:26;8.37;;;7.33;;
27921;SDS011;15261;50.356;10.340;2024-01-07T08:05:52;9.17;;;7.37;;
27921;SDS011;15261;50.356;10.340;2024-01-07T08:08:19;8.13;;;7.27;;
27921;SDS011;15261;50.356;10.340;2024-01-07T08:10:45;9.77;;;7.90;;
27921;SDS011;15261;50.356;10.340;2024-01-07T08:13:10;10.33;;;8.37;;
27921;SDS011;15261;50.356;10.340;2024-01-07T08:15:36;9.13;;;8.00;;
27921;SDS011;15261;50.356;10.340;2024-01-07T08:18:02;10.93;;;8.53;;
27921;SDS011;15261;50.356;10.340;2024-01-07T08:20:28;9.17;;;7.70;;
27921;SDS011;15261;50.356;10.340;2024-01-07T08:22:54;8.93;;;8.00;;
27921;SDS011;15261;50.356;10.340;2024-01-07T08:25:19;9.53;;;7.47;;
27921;SDS011;15261;50.356;10.340;2024-01-07T08:27:45;9.47;;;7.33;;
27921;SDS011;15261;50.356;10.340;2024-01-07T08:30:11;8.97;;;7.40;;
27921;SDS011;15261;50.356;10.340;2024-01-07T08:32:38;8.53;;;7.63;;
27921;SDS011;15261;50.356;10.340;2024-01-07T08:35:04;8.00;;;7.00;;
27921;SDS011;15261;50.356;10.340;2024-01-07T08:37:30;9.90;;;7.50;;
27921;SDS011;15261;50.356;10.340;2024-01-07T08:39:56;7.97;;;7.13;;
27921;SDS011;15261;50.356;10.340;2024-01-07T08:42:21;9.00;;;7.17;;
27921;SDS011;15261;50.356;10.340;2024-01-07T08:44:47;9.77;;;7.90;;
27921;SDS011;15261;50.356;10.340;2024-01-07T08:47:12;10.27;;;8.73;;
27921;SDS011;15261;50.356;10.340;2024-01-07T08:49:38;12.10;;;8.87;;
27921;SDS011;15261;50.356;10.340;2024-01-07T08:52:04;11.00;;;8.50;;
27921;SDS011;15261;50.356;10.340;2024-01-07T08:54:30;9.87;;;8.27;;
27921;SDS011;15261;50.356;10.340;2024-01-07T08:56:56;10.80;;;9.07;;
27921;SDS011;15261;50.356;10.340;2024-01-07T08:59:21;10.57;;;8.30;;
27921;SDS011;15261;50.356;10.340;2024-01-07T09:01:50;10.07;;;8.40;;
27921;SDS011;15261;50.356;10.340;2024-01-07T09:04:15;11.13;;;8.47;;
27921;SDS011;15261;50.356;10.340;2024-01-07T09:06:42;10.03;;;7.77;;
27921;SDS011;15261;50.356;10.340;2024-01-07T09:09:09;10.03;;;8.10;;
27921;SDS011;15261;50.356;10.340;2024-01-07T09:11:34;10.03;;;8.30;;
27921;SDS011;15261;50.356;10.340;2024-01-07T09:14:01;8.87;;;7.97;;
27921;SDS011;15261;50.356;10.340;2024-01-07T09:16:28;8.43;;;7.60;;
27921;SDS011;15261;50.356;10.340;2024-01-07T09:18:54;7.93;;;7.13;;
27921;SDS011;15261;50.356;10.340;2024-01-07T09:21:19;8.17;;;7.13;;
27921;SDS011;15261;50.356;10.340;2024-01-07T09:23:45;8.53;;;7.20;;
27921;SDS011;15261;50.356;10.340;2024-01-07T09:26:10;8.67;;;7.67;;
27921;SDS011;15261;50.356;10.340;2024-01-07T09:28:36;8.17;;;7.17;;
27921;SDS011;15261;50.356;10.340;2024-01-07T09:31:01;8.73;;;6.87;;
27921;SDS011;15261;50.356;10.340;2024-01-07T09:33:27;8.73;;;7.07;;
27921;SDS011;15261;50.356;10.340;2024-01-07T09:35:53;7.23;;;6.50;;
27921;SDS011;15261;50.356;10.340;2024-01-07T09:38:21;8.03;;;6.47;;
27921;SDS011;15261;50.356;10.340;2024-01-07T09:40:47;8.47;;;6.77;;
27921;SDS011;15261;50.356;10.340;2024-01-07T09:43:14;7.87;;;6.93;;
27921;SDS011;15261;50.356;10.340;2024-01-07T09:45:41;7.77;;;6.80;;
27921;SDS011;15261;50.356;10.340;2024-01-07T09:48:10;8.87;;;7.17;;
27921;SDS011;15261;50.356;10.340;2024-01-07T09:50:36;7.43;;;6.63;;
27921;SDS011;15261;50.356;10.340;2024-01-07T09:53:02;7.03;;;6.13;;
27921;SDS011;15261;50.356;10.340;2024-01-07T09:55:31;7.40;;;6.40;;
27921;SDS011;15261;50.356;10.340;2024-01-07T09:57:59;7.17;;;6.23;;
27921;SDS011;15261;50.356;10.340;2024-01-07T10:00:26;10.80;;;6.80;;
27921;SDS011;15261;50.356;10.340;2024-01-07T10:02:52;8.97;;;6.83;;
27921;SDS011;15261;50.356;10.340;2024-01-07T10:05:19;6.93;;;6.13;;
27921;SDS011;15261;50.356;10.340;2024-01-07T10:07:44;7.23;;;6.10;;
27921;SDS011;15261;50.356;10.340;2024-01-07T10:10:13;7.63;;;5.90;;
27921;SDS011;15261;50.356;10.340;2024-01-07T10:12:39;6.20;;;5.60;;
27921;SDS011;15261;50.356;10.340;2024-01-07T10:15:05;6.90;;;6.20;;
27921;SDS011;15261;50.356;10.340;2024-01-07T10:17:31;9.10;;;6.47;;
27921;SDS011;15261;50.356;10.340;2024-01-07T10:19:57;8.07;;;6.97;;
27921;SDS011;15261;50.356;10.340;2024-01-07T10:22:23;7.97;;;6.40;;
27921;SDS011;15261;50.356;10.340;2024-01-07T10:24:50;7.87;;;6.33;;
27921;SDS011;15261;50.356;10.340;2024-01-07T10:27:16;7.50;;;6.40;;
27921;SDS011;15261;50.356;10.340;2024-01-07T10:29:43;6.30;;;5.70;;
27921;SDS011;15261;50.356;10.340;2024-01-07T10:32:14;6.97;;;5.80;;
27921;SDS011;15261;50.356;10.340;2024-01-07T10:34:40;7.00;;;5.70;;
27921;SDS011;15261;50.356;10.340;2024-01-07T10:37:09;6.30;;;5.67;;
27921;SDS011;15261;50.356;10.340;2024-01-07T10:39:36;6.97;;;5.93;;
27921;SDS011;15261;50.356;10.340;2024-01-07T10:42:01;8.40;;;7.60;;
27921;SDS011;15261;50.356;10.340;2024-01-07T10:44:29;9.67;;;7.70;;
27921;SDS011;15261;50.356;10.340;2024-01-07T10:46:56;10.30;;;8.37;;
27921;SDS011;15261;50.356;10.340;2024-01-07T10:49:25;11.93;;;8.83;;
27921;SDS011;15261;50.356;10.340;2024-01-07T10:54:31;10.97;;;9.13;;
27921;SDS011;15261;50.356;10.340;2024-01-07T10:56:59;38.13;;;24.33;;
27921;SDS011;15261;50.356;10.340;2024-01-07T10:59:42;22.60;;;14.47;;
27921;SDS011;15261;50.356;10.340;2024-01-07T11:02:10;65.73;;;37.60;;
27921;SDS011;15261;50.356;10.340;2024-01-07T11:07:32;50.77;;;27.47;;
27921;SDS011;15261;50.356;10.340;2024-01-07T11:10:25;32.80;;;18.10;;
27921;SDS011;15261;50.356;10.340;2024-01-07T11:13:00;32.80;;;21.80;;
27921;SDS011;15261;50.356;10.340;2024-01-07T11:18:19;11.83;;;9.40;;
27921;SDS011;15261;50.356;10.340;2024-01-07T11:20:46;17.73;;;13.40;;
27921;SDS011;15261;50.356;10.340;2024-01-07T11:23:31;13.90;;;12.30;;
27921;SDS011;15261;50.356;10.340;2024-01-07T11:26:05;13.40;;;11.70;;
27921;SDS011;15261;50.356;10.340;2024-01-07T11:28:50;12.47;;;10.97;;
27921;SDS011;15261;50.356;10.340;2024-01-07T11:31:18;19.67;;;15.33;;
27921;SDS011;15261;50.356;10.340;2024-01-07T11:33:45;13.27;;;11.43;;
27921;SDS011;15261;50.356;10.340;2024-01-07T11:36:13;8.27;;;7.40;;
27921;SDS011;15261;50.356;10.340;2024-01-07T11:38:47;16.63;;;15.00;;
27921;SDS011;15261;50.356;10.340;2024-01-07T11:41:14;8.60;;;7.60;;
27921;SDS011;15261;50.356;10.340;2024-01-07T11:43:58;9.30;;;6.60;;
27921;SDS011;15261;50.356;10.340;2024-01-07T11:46:28;7.47;;;5.67;;
27921;SDS011;15261;50.356;10.340;2024-01-07T11:48:58;13.43;;;10.70;;
27921;SDS011;15261;50.356;10.340;2024-01-07T11:51:27;9.87;;;8.60;;
27921;SDS011;15261;50.356;10.340;2024-01-07T11:53:55;10.60;;;8.20;;
27921;SDS011;15261;50.356;10.340;2024-01-07T11:56:21;17.13;;;12.07;;
27921;SDS011;15261;50.356;10.340;2024-01-07T11:58:47;14.60;;;9.53;;
27921;SDS011;15261;50.356;10.340;2024-01-07T12:01:14;14.27;;;11.27;;
27921;SDS011;15261;50.356;10.340;2024-01-07T12:03:42;11.63;;;9.40;;
27921;SDS011;15261;50.356;10.340;2024-01-07T12:06:10;9.47;;;8.17;;
27921;SDS011;15261;50.356;10.340;2024-01-07T12:08:42;8.23;;;7.40;;
27921;SDS011;15261;50.356;10.340;2024-01-07T12:11:08;11.03;;;9.23;;
27921;SDS011;15261;50.356;10.340;2024-01-07T12:13:36;7.50;;;6.80;;
27921;SDS011;15261;50.356;10.340;2024-01-07T12:16:02;11.93;;;7.93;;
27921;SDS011;15261;50.356;10.340;2024-01-07T12:18:29;7.97;;;6.53;;
27921;SDS011;15261;50.356;10.340;2024-01-07T12:20:58;7.70;;;6.00;;
27921;SDS011;15261;50.356;10.340;2024-01-07T12:23:25;6.80;;;5.60;;
27921;SDS011;15261;50.356;10.340;2024-01-07T12:25:54;8.10;;;7.30;;
27921;SDS011;15261;50.356;10.340;2024-01-07T12:28:31;6.43;;;5.83;;
27921;SDS011;15261;50.356;10.340;2024-01-07T12:30:57;16.30;;;14.50;;
27921;SDS011;15261;50.356;10.340;2024-01-07T12:33:23;7.07;;;6.37;;
27921;SDS011;15261;50.356;10.340;2024-01-07T12:35:51;5.97;;;4.90;;
27921;SDS011;15261;50.356;10.340;2024-01-07T12:38:22;7.10;;;5.40;;
27921;SDS011;15261;50.356;10.340;2024-01-07T12:40:54;6.07;;;5.20;;
27921;SDS011;15261;50.356;10.340;2024-01-07T12:43:20;5.27;;;4.73;;
27921;SDS011;15261;50.356;10.340;2024-01-07T12:45:46;6.37;;;4.40;;
27921;SDS011;15261;50.356;10.340;2024-01-07T12:48:12;5.93;;;4.60;;
27921;SDS011;15261;50.356;10.340;2024-01-07T12:50:38;5.60;;;4.57;;
27921;SDS011;15261;50.356;10.340;2024-01-07T12:53:03;5.93;;;5.27;;
27921;SDS011;15261;50.356;10.340;2024-01-07T12:55:30;7.03;;;5.30;;
27921;SDS011;15261;50.356;10.340;2024-01-07T12:57:56;5.47;;;4.77;;
27921;SDS011;15261;50.356;10.340;2024-01-07T13:00:23;5.47;;;4.60;;
27921;SDS011;15261;50.356;10.340;2024-01-07T13:02:50;10.37;;;5.70;;
27921;SDS011;15261;50.356;10.340;2024-01-07T13:05:16;7.37;;;5.23;;
27921;SDS011;15261;50.356;10.340;2024-01-07T13:07:42;4.47;;;4.07;;
27921;SDS011;15261;50.356;10.340;2024-01-07T13:10:07;5.47;;;4.37;;
27921;SDS011;15261;50.356;10.340;2024-01-07T13:12:34;5.00;;;4.27;;
27921;SDS011;15261;50.356;10.340;2024-01-07T13:15:01;7.03;;;5.40;;
27921;SDS011;15261;50.356;10.340;2024-01-07T13:17:27;7.00;;;5.00;;
27921;SDS011;15261;50.356;10.340;2024-01-07T13:19:55;6.47;;;4.80;;
27921;SDS011;15261;50.356;10.340;2024-01-07T13:22:20;5.13;;;4.03;;
27921;SDS011;15261;50.356;10.340;2024-01-07T13:24:46;4.97;;;4.40;;
27921;SDS011;15261;50.356;10.340;2024-01-07T13:27:11;9.60;;;5.37;;
27921;SDS011;15261;50.356;10.340;2024-01-07T13:29:38;6.60;;;4.83;;
27921;SDS011;15261;50.356;10.340;2024-01-07T13:32:04;8.30;;;5.43;;
27921;SDS011;15261;50.356;10.340;2024-01-07T13:34:31;15.70;;;7.70;;
27921;SDS011;15261;50.356;10.340;2024-01-07T13:36:56;9.47;;;5.47;;
27921;SDS011;15261;50.356;10.340;2024-01-07T13:39:22;8.77;;;5.50;;
27921;SDS011;15261;50.356;10.340;2024-01-07T13:41:47;8.97;;;6.00;;
27921;SDS011;15261;50.356;10.340;2024-01-07T13:44:13;5.40;;;4.77;;
27921;SDS011;15261;50.356;10.340;2024-01-07T13:46:45;24.83;;;17.97;;
27921;SDS011;15261;50.356;10.340;2024-01-07T13:49:17;7.23;;;6.13;;
27921;SDS011;15261;50.356;10.340;2024-01-07T13:51:43;3.73;;;3.33;;
27921;SDS011;15261;50.356;10.340;2024-01-07T13:54:09;4.07;;;3.67;;
27921;SDS011;15261;50.356;10.340;2024-01-07T13:56:38;6.23;;;5.63;;
27921;SDS011;15261;50.356;10.340;2024-01-07T13:59:07;9.17;;;7.80;;
27921;SDS011;15261;50.356;10.340;2024-01-07T14:01:33;13.77;;;10.20;;
27921;SDS011;15261;50.356;10.340;2024-01-07T14:03:59;8.87;;;6.73;;
27921;SDS011;15261;50.356;10.340;2024-01-07T14:06:24;7.83;;;6.20;;
27921;SDS011;15261;50.356;10.340;2024-01-07T14:08:50;11.23;;;9.37;;
27921;SDS011;15261;50.356;10.340;2024-01-07T14:11:17;8.63;;;6.60;;
27921;SDS011;15261;50.356;10.340;2024-01-07T14:13:43;7.53;;;6.40;;
27921;SDS011;15261;50.356;10.340;2024-01-07T14:16:10;3.63;;;3.33;;
27921;SDS011;15261;50.356;10.340;2024-01-07T14:21:11;5.10;;;3.57;;
27921;SDS011;15261;50.356;10.340;2024-01-07T14:23:36;6.50;;;4.33;;
27921;SDS011;15261;50.356;10.340;2024-01-07T14:26:02;4.57;;;4.17;;
27921;SDS011;15261;50.356;10.340;2024-01-07T14:28:28;8.90;;;6.20;;
27921;SDS011;15261;50.356;10.340;2024-01-07T14:30:54;6.60;;;5.67;;
27921;SDS011;15261;50.356;10.340;2024-01-07T14:33:20;9.47;;;7.17;;
27921;SDS011;15261;50.356;10.340;2024-01-07T14:35:45;42.47;;;25.07;;
27921;SDS011;15261;50.356;10.340;2024-01-07T14:38:11;36.70;;;23.90;;
27921;SDS011;15261;50.356;10.340;2024-01-07T14:40:36;40.77;;;25.57;;
27921;SDS011;15261;50.356;10.340;2024-01-07T14:43:05;53.33;;;34.33;;
27921;SDS011;15261;50.356;10.340;2024-01-07T14:45:30;25.77;;;18.80;;
27921;SDS011;15261;50.356;10.340;2024-01-07T14:47:56;3.43;;;3.13;;
27921;SDS011;15261;50.356;10.340;2024-01-07T14:50:21;3.80;;;2.87;;
27921;SDS011;15261;50.356;10.340;2024-01-07T14:52:47;4.47;;;3.00;;
27921;SDS011;15261;50.356;10.340;2024-01-07T14:55:13;6.53;;;3.17;;
27921;SDS011;15261;50.356;10.340;2024-01-07T14:57:39;2.73;;;2.53;;
27921;SDS011;15261;50.356;10.340;2024-01-07T15:00:05;5.93;;;4.10;;
27921;SDS011;15261;50.356;10.340;2024-01-07T15:02:31;9.03;;;4.70;;
27921;SDS011;15261;50.356;10.340;2024-01-07T15:04:57;6.37;;;4.03;;
27921;SDS011;15261;50.356;10.340;2024-01-07T15:07:23;5.27;;;3.73;;
27921;SDS011;15261;50.356;10.340;2024-01-07T15:09:50;3.93;;;3.00;;
27921;SDS011;15261;50.356;10.340;2024-01-07T15:12:15;2.80;;;2.60;;
27921;SDS011;15261;50.356;10.340;2024-01-07T15:14:41;8.60;;;5.60;;
27921;SDS011;15261;50.356;10.340;2024-01-07T15:17:06;5.03;;;3.67;;
27921;SDS011;15261;50.356;10.340;2024-01-07T15:19:33;3.80;;;3.13;;